North Charleston, South Carolina
Current Conditions -  °F | °C
As of 1:56 AM on Saturday 01 Nov 2014 (Local Time) from KCHS Reporting Station
Few Clouds Few Clouds  
Wind Chill: 54°   Ceiling: Unl
Heat Index: 54°   Visibility: 10mi
Dew Point: 51°   Wind: 8mph
Humidity: 90%   Direction: 260°W
Pressure: 29.74"   Gusts: NA
Location:  32.88°N, 80.01°W
Report Text: KCHS 010556Z 26007KT 10SM FEW080 12/11 A2974 RMK AO2 SLP071 60009 T01220106 10156 20122 58015
Loading
Personal Weather Stations






























Interactive Weather Map
Tropical Storm Tracking
New forecast layout! Learn more

10-Day Weather Forecast

Advertisements
Track Severe Weather on mobile